This is the latest recevied weather packets stored in our database for station/object SQ9SMC-13. If no packets are shown the sender has not sent any weather packets the latest 10 day(s).
| Time | Temp. | Humidity | Pressure | Rain* | Wind** | Luminosity | Snow |
|---|---|---|---|---|---|---|---|
| 1777947903 | 8.33° C | 73% | 1013.2 hPa | 0 mm | - | 0 W/m² | - |
| 1777947603 | 8.33° C | 71% | 1013.5 hPa | 0 mm | - | 0 W/m² | - |
| 1777947304 | 8.89° C | 69% | 1013.4 hPa | 0 mm | - | 0 W/m² | - |
| 1777947003 | 8.89° C | 68% | 1013.4 hPa | 0 mm | - | 0 W/m² | - |
| 1777946703 | 9.44° C | 68% | 1013.5 hPa | 0 mm | - | 0 W/m² | - |
| 1777946404 | 9.44° C | 68% | 1013.5 hPa | 0 mm | - | 0 W/m² | - |
| 1777946103 | 9.44° C | 68% | 1013.6 hPa | 0 mm | - | 0 W/m² | - |
| 1777945802 | 9.44° C | 68% | 1013.8 hPa | 0 mm | - | 0 W/m² | - |
| 1777945503 | 9.44° C | 67% | 1013.7 hPa | 0 mm | - | 0 W/m² | - |
| 1777945203 | 9.44° C | 65% | 1013.7 hPa | 0 mm | - | 0 W/m² | - |
| 1777944903 | 10° C | 65% | 1013.6 hPa | 0 mm | - | 0 W/m² | - |
| 1777944605 | 10° C | 64% | 1013.7 hPa | 0 mm | - | 0 W/m² | - |
| 1777944304 | 10.56° C | 62% | 1013.7 hPa | 0 mm | - | 0 W/m² | - |
| 1777944005 | 10.56° C | 62% | 1013.7 hPa | 0 mm | - | 0 W/m² | - |
| 1777943704 | 11.11° C | 59% | 1013.6 hPa | 0 mm | - | 0 W/m² | - |
| 1777943403 | 11.67° C | 55% | 1013.5 hPa | 0 mm | - | 0 W/m² | - |
| 1777943103 | 12.22° C | 54% | 1013.6 hPa | 0 mm | - | 0 W/m² | - |
| 1777942803 | 12.78° C | 54% | 1013.7 hPa | 0 mm | - | 0 W/m² | - |
| 1777942505 | 13.33° C | 48% | 1013.7 hPa | 0 mm | - | 0 W/m² | - |
| 1777942203 | 13.89° C | 49% | 1013.6 hPa | 0 mm | - | 0 W/m² | - |
| 1777941904 | 15° C | 43% | 1013.7 hPa | 0 mm | - | 0 W/m² | - |
| 1777941603 | 15.56° C | 41% | 1013.8 hPa | 0 mm | - | 0 W/m² | - |
| 1777941305 | 15.56° C | 40% | 1013.8 hPa | 0 mm | - | 0 W/m² | - |
| 1777941005 | 15.56° C | 41% | 1013.6 hPa | 0 mm | - | 0 W/m² | - |
| 1777940702 | 15.56° C | 41% | 1013.8 hPa | 0 mm | - | 0 W/m² | - |
* Rain latest hour (hover to see other rain measurements)
** Current wind speed in m/s (hover to see current wind gust speed)